Time;durP1;ratioP1;P1;durP2;ratioP2;P2;SDS_P1;SDS_P2;PMS_P1;PMS_P2;Temp;Humidity;BMP_temperature;BMP_pressure;BME280_temperature;BME280_humidity;BME280_pressure;Samples;Min_cycle;Max_cycle;Signal;HPM_P1;HPM_P2
2024/03/27 00:01:30;;;;;;;6.55;3.80;;;9.60;42.40;;;;;;5050603;28;20381;-69
2024/03/27 00:03:56;;;;;;;7.80;3.80;;;9.50;43.10;;;;;;5050810;28;20468;-71
2024/03/27 00:06:21;;;;;;;5.47;3.50;;;9.60;43.00;;;;;;5050699;28;20467;-70
2024/03/27 00:08:47;;;;;;;7.27;3.67;;;9.50;43.20;;;;;;5050904;28;20891;-72
2024/03/27 00:11:13;;;;;;;6.83;3.80;;;9.60;43.20;;;;;;5050426;28;20384;-71
2024/03/27 00:13:38;;;;;;;6.93;3.43;;;9.60;43.20;;;;;;5050740;28;20509;-70
2024/03/27 00:16:04;;;;;;;6.05;3.70;;;9.60;43.80;;;;;;5050702;28;20455;-71
2024/03/27 00:18:30;;;;;;;9.02;3.70;;;9.60;44.10;;;;;;5032641;28;20413;-70
2024/03/27 00:20:55;;;;;;;10.10;3.97;;;9.70;44.10;;;;;;5032900;28;20373;-69
2024/03/27 00:23:21;;;;;;;6.53;4.10;;;9.90;43.50;;;;;;5050666;28;20390;-71
2024/03/27 00:25:58;;;;;;;11.20;4.27;;;10.10;42.40;;;;;;5050756;28;20868;-72
2024/03/27 00:28:24;;;;;;;7.00;3.75;;;9.90;42.70;;;;;;5032568;28;20904;-70
2024/03/27 00:30:50;;;;;;;6.53;3.92;;;9.90;42.70;;;;;;5050527;28;20481;-72
2024/03/27 00:33:16;;;;;;;7.97;4.13;;;9.80;42.80;;;;;;5056806;28;20385;-70
2024/03/27 00:35:57;;;;;;;7.00;4.07;;;9.80;43.10;;;;;;5055059;28;20894;-70
2024/03/27 00:38:24;;;;;;;6.25;3.92;;;9.80;43.40;;;;;;5054606;28;20389;-71
2024/03/27 00:40:50;;;;;;;8.93;4.30;;;9.80;43.10;;;;;;5054808;28;20385;-69
2024/03/27 00:43:16;;;;;;;8.07;4.33;;;9.70;43.10;;;;;;5054734;28;20945;-70
2024/03/27 00:45:43;;;;;;;9.27;4.93;;;9.70;42.80;;;;;;5054309;28;20427;-70
2024/03/27 00:48:09;;;;;;;6.70;4.32;;;9.90;43.10;;;;;;5054150;28;20431;-69
2024/03/27 00:50:34;;;;;;;9.07;4.80;;;10.00;42.50;;;;;;5036159;28;20907;-70
2024/03/27 00:53:01;;;;;;;6.70;4.20;;;10.10;41.50;;;;;;5036105;28;20476;-70
2024/03/27 00:55:27;;;;;;;9.88;4.40;;;10.10;40.60;;;;;;5053956;28;20384;-70
2024/03/27 00:57:52;;;;;;;8.77;4.63;;;10.10;40.00;;;;;;5053819;28;20378;-70
2024/03/27 01:00:18;;;;;;;9.30;5.00;;;10.10;39.60;;;;;;5053458;28;20458;-71
2024/03/27 01:02:45;;;;;;;9.00;5.85;;;10.10;39.30;;;;;;5053696;28;20396;-69
2024/03/27 01:05:11;;;;;;;10.50;7.00;;;10.00;39.40;;;;;;5035871;28;20393;-70
2024/03/27 01:07:37;;;;;;;14.32;8.15;;;10.00;39.10;;;;;;5054001;28;20784;-70
2024/03/27 01:10:11;;;;;;;18.33;11.10;;;10.00;38.90;;;;;;5053879;28;21176;-71
2024/03/27 01:12:41;;;;;;;22.13;12.77;;;10.00;39.10;;;;;;5035712;28;20458;-69
2024/03/27 01:15:07;;;;;;;26.15;15.18;;;10.00;38.90;;;;;;5054278;28;20401;-71
2024/03/27 01:17:33;;;;;;;27.95;14.77;;;10.10;38.40;;;;;;5062408;28;20389;-72
2024/03/27 01:19:59;;;;;;;28.50;15.90;;;10.10;38.60;;;;;;5042303;28;20431;-71
2024/03/27 01:22:25;;;;;;;29.50;16.23;;;10.10;38.50;;;;;;5057216;28;20369;-71
2024/03/27 01:24:50;;;;;;;33.37;16.50;;;10.10;38.20;;;;;;5053593;28;20404;-71
2024/03/27 01:27:16;;;;;;;35.47;16.75;;;10.10;38.00;;;;;;5053469;28;20385;-70
2024/03/27 01:29:41;;;;;;;34.30;16.40;;;10.00;37.80;;;;;;5053396;28;20851;-70
2024/03/27 01:32:08;;;;;;;40.85;18.63;;;10.00;37.90;;;;;;5053240;28;20385;-69
2024/03/27 01:34:33;;;;;;;35.40;17.60;;;9.90;38.30;;;;;;5035358;28;20486;-71
2024/03/27 01:36:59;;;;;;;30.83;17.20;;;9.90;38.90;;;;;;5053436;28;20894;-69
2024/03/27 01:39:25;;;;;;;39.38;17.80;;;9.90;38.20;;;;;;5053069;28;20405;-69
2024/03/27 01:41:51;;;;;;;33.10;16.53;;;9.90;38.40;;;;;;5052844;28;20397;-71
2024/03/27 01:44:18;;;;;;;35.57;16.40;;;9.90;38.50;;;;;;5052040;28;20393;-72
2024/03/27 01:46:48;;;;;;;32.05;16.55;;;9.90;38.10;;;;;;5053014;28;20860;-69
2024/03/27 01:49:15;;;;;;;32.30;16.15;;;10.00;37.90;;;;;;5053520;28;20439;-70
2024/03/27 01:51:41;;;;;;;31.67;15.75;;;9.90;38.70;;;;;;5035010;28;20429;-71
2024/03/27 01:54:09;;;;;;;32.78;16.10;;;9.80;39.10;;;;;;5053090;28;20399;-70
2024/03/27 01:56:36;;;;;;;33.95;16.02;;;9.90;38.40;;;;;;5053031;28;20472;-70
2024/03/27 01:59:02;;;;;;;30.17;15.40;;;10.00;38.00;;;;;;5053074;28;20412;-70
2024/03/27 02:01:29;;;;;;;29.50;15.70;;;9.90;38.20;;;;;;5052811;28;20374;-69
2024/03/27 02:03:55;;;;;;;34.20;16.48;;;9.80;38.60;;;;;;5052953;28;20381;-70
2024/03/27 02:06:21;;;;;;;33.60;16.13;;;9.80;38.70;;;;;;5053418;28;20382;-69
2024/03/27 02:08:48;;;;;;;33.15;15.65;;;9.80;38.60;;;;;;5042335;28;20529;-71
2024/03/27 02:11:14;;;;;;;28.40;14.37;;;9.80;38.90;;;;;;5058611;28;20381;-71
2024/03/27 02:13:40;;;;;;;27.08;14.80;;;9.70;39.00;;;;;;5053578;28;20412;-72
2024/03/27 02:16:05;;;;;;;29.53;14.10;;;9.70;38.90;;;;;;5052907;28;20808;-72
2024/03/27 02:18:31;;;;;;;27.15;14.10;;;9.70;39.00;;;;;;5052872;28;20740;-72
2024/03/27 02:20:57;;;;;;;28.50;14.07;;;9.70;39.30;;;;;;5052606;28;20788;-71
2024/03/27 02:23:28;;;;;;;24.73;12.95;;;9.60;39.70;;;;;;5035645;28;20408;-73
2024/03/27 02:26:10;;;;;;;31.17;12.70;;;9.60;39.60;;;;;;5036339;28;20431;-74
2024/03/27 02:28:36;;;;;;;22.08;11.10;;;9.60;39.30;;;;;;5052399;28;20417;-72
2024/03/27 02:31:01;;;;;;;21.00;10.50;;;9.60;39.40;;;;;;5052313;28;20420;-73
2024/03/27 02:33:27;;;;;;;18.65;9.70;;;9.60;39.40;;;;;;5052625;28;20448;-71
2024/03/27 02:35:53;;;;;;;15.02;8.50;;;9.50;39.90;;;;;;5052398;28;20401;-72
2024/03/27 02:38:18;;;;;;;14.50;8.38;;;9.50;40.20;;;;;;5052502;28;20464;-73
2024/03/27 02:40:44;;;;;;;14.02;7.22;;;9.60;40.20;;;;;;5052305;28;20412;-74
2024/03/27 02:43:09;;;;;;;13.10;6.43;;;9.60;40.20;;;;;;5052770;28;20415;-73
2024/03/27 02:45:35;;;;;;;11.47;5.80;;;9.50;40.00;;;;;;5053231;28;20381;-70
2024/03/27 02:48:00;;;;;;;8.97;5.23;;;9.40;40.40;;;;;;5052644;28;20419;-73
2024/03/27 02:50:26;;;;;;;7.83;4.90;;;9.40;40.00;;;;;;5052194;28;20424;-74
2024/03/27 02:52:52;;;;;;;8.40;4.80;;;9.40;40.00;;;;;;5051915;28;20439;-72
2024/03/27 02:55:17;;;;;;;7.10;4.03;;;9.40;39.80;;;;;;5051910;28;20385;-71
2024/03/27 02:57:43;;;;;;;9.33;4.40;;;9.40;39.90;;;;;;5052738;28;20409;-73
2024/03/27 03:00:10;;;;;;;8.20;4.35;;;9.50;39.60;;;;;;5053044;28;20765;-74
2024/03/27 03:02:36;;;;;;;6.38;3.80;;;9.50;39.30;;;;;;5034052;28;20386;-73
2024/03/27 03:05:02;;;;;;;5.50;3.88;;;9.60;38.90;;;;;;5051888;28;20744;-75
2024/03/27 03:07:28;;;;;;;6.47;3.88;;;9.60;38.90;;;;;;5051630;28;20373;-74
2024/03/27 03:09:54;;;;;;;7.60;3.80;;;9.60;38.50;;;;;;5051772;28;20384;-73
2024/03/27 03:12:19;;;;;;;8.80;3.95;;;9.60;38.70;;;;;;5051634;28;20393;-71
2024/03/27 03:14:45;;;;;;;5.70;3.70;;;9.60;38.50;;;;;;5051492;28;20768;-72
2024/03/27 03:17:10;;;;;;;8.18;4.25;;;9.60;38.50;;;;;;5051791;28;20400;-73
2024/03/27 03:19:36;;;;;;;7.40;4.27;;;9.60;38.60;;;;;;5051531;28;20413;-74
2024/03/27 03:22:04;;;;;;;5.93;4.07;;;9.60;38.80;;;;;;5051307;28;20744;-72
2024/03/27 03:24:30;;;;;;;5.35;3.28;;;9.60;38.80;;;;;;5051311;28;20385;-72
2024/03/27 03:26:55;;;;;;;6.40;3.88;;;9.60;38.60;;;;;;5051714;28;20378;-73
2024/03/27 03:29:21;;;;;;;6.72;3.80;;;9.60;38.60;;;;;;5051675;28;20401;-73
2024/03/27 03:31:47;;;;;;;10.00;4.10;;;9.70;38.50;;;;;;5051220;28;20389;-72
2024/03/27 03:34:12;;;;;;;5.53;3.65;;;9.70;38.40;;;;;;5051307;28;20393;-73
2024/03/27 03:36:39;;;;;;;7.22;3.38;;;9.80;38.50;;;;;;5033456;28;20385;-71
2024/03/27 03:39:04;;;;;;;6.83;3.90;;;9.90;37.80;;;;;;5051309;28;20480;-71
2024/03/27 03:41:30;;;;;;;6.27;3.80;;;10.00;37.90;;;;;;5050948;28;20444;-72
2024/03/27 03:43:55;;;;;;;5.53;3.00;;;10.00;37.20;;;;;;5051576;28;20378;-73
2024/03/27 03:46:21;;;;;;;7.30;3.50;;;10.00;37.20;;;;;;5051778;28;20430;-72
2024/03/27 03:48:46;;;;;;;5.90;3.70;;;9.90;37.50;;;;;;5051234;28;20713;-73
2024/03/27 03:51:12;;;;;;;6.30;3.80;;;9.80;37.70;;;;;;5051060;28;20385;-72
2024/03/27 03:53:37;;;;;;;5.18;3.50;;;9.80;37.90;;;;;;5033840;28;20912;-72
2024/03/27 03:56:05;;;;;;;5.60;3.60;;;9.80;37.70;;;;;;5051856;28;20385;-73
2024/03/27 03:58:30;;;;;;;8.50;3.63;;;9.70;37.60;;;;;;5051403;28;20447;-72
2024/03/27 04:00:56;;;;;;;5.03;3.63;;;9.80;37.80;;;;;;5051212;28;20385;-74
2024/03/27 04:03:21;;;;;;;4.70;3.40;;;9.80;37.60;;;;;;5032980;28;20378;-74
2024/03/27 04:05:47;;;;;;;9.83;3.60;;;9.80;37.30;;;;;;5050899;28;20390;-74
2024/03/27 04:08:12;;;;;;;4.40;3.30;;;9.80;37.10;;;;;;5051345;28;20390;-71
2024/03/27 04:10:42;;;;;;;5.20;3.30;;;9.80;37.10;;;;;;5051410;28;20755;-73
2024/03/27 04:13:08;;;;;;;6.20;3.25;;;9.90;36.70;;;;;;5033212;28;20408;-73
2024/03/27 04:15:40;;;;;;;7.40;3.60;;;9.90;36.60;;;;;;5032905;28;20381;-73
2024/03/27 04:18:06;;;;;;;8.40;3.92;;;10.00;36.80;;;;;;5050557;28;20373;-74
2024/03/27 04:20:32;;;;;;;8.88;3.88;;;10.00;36.60;;;;;;5050051;28;20401;-73
2024/03/27 04:22:58;;;;;;;6.78;3.88;;;10.00;36.70;;;;;;5050532;28;20884;-73
2024/03/27 04:25:23;;;;;;;5.82;3.50;;;10.10;36.40;;;;;;5050551;28;20400;-73
2024/03/27 04:27:50;;;;;;;8.45;3.80;;;10.30;36.00;;;;;;5050700;28;20822;-73
2024/03/27 04:30:17;;;;;;;7.53;3.92;;;10.30;36.20;;;;;;5054904;28;20745;-74
2024/03/27 04:32:43;;;;;;;6.38;3.85;;;10.30;36.20;;;;;;5055203;28;20389;-72
2024/03/27 04:35:09;;;;;;;8.45;3.90;;;10.30;36.30;;;;;;5036085;28;20525;-73
2024/03/27 04:37:35;;;;;;;5.32;3.50;;;10.20;36.50;;;;;;5050605;28;20464;-74
2024/03/27 04:40:00;;;;;;;6.50;3.75;;;10.20;36.60;;;;;;5032498;28;20907;-71
2024/03/27 04:42:26;;;;;;;5.22;3.40;;;10.10;37.00;;;;;;5050128;28;20388;-72
2024/03/27 04:44:52;;;;;;;7.60;3.40;;;10.10;37.10;;;;;;5051222;28;20381;-73
2024/03/27 04:47:17;;;;;;;7.90;3.55;;;10.10;36.80;;;;;;5050260;28;20389;-72
2024/03/27 04:49:43;;;;;;;6.03;3.42;;;10.10;36.90;;;;;;5050086;28;20393;-73
2024/03/27 04:52:08;;;;;;;7.83;4.10;;;10.10;37.10;;;;;;5050113;28;20377;-74
2024/03/27 04:54:34;;;;;;;5.90;3.70;;;10.10;37.10;;;;;;5043471;28;20388;-73
2024/03/27 04:56:59;;;;;;;8.77;3.60;;;10.10;37.20;;;;;;5030457;28;20387;-72
2024/03/27 04:59:25;;;;;;;5.60;3.80;;;10.10;37.10;;;;;;5040640;28;20481;-73
2024/03/27 05:01:50;;;;;;;7.93;3.95;;;10.20;36.90;;;;;;5043690;28;20453;-73
2024/03/27 05:04:16;;;;;;;7.05;3.70;;;10.20;37.20;;;;;;5041904;28;20483;-73
2024/03/27 05:06:42;;;;;;;6.75;3.50;;;10.30;37.20;;;;;;5033808;28;20390;-74
2024/03/27 05:09:11;;;;;;;8.32;4.03;;;10.30;37.00;;;;;;5052174;28;20389;-72
2024/03/27 05:11:38;;;;;;;8.25;4.60;;;10.30;37.30;;;;;;5050356;28;20495;-76
2024/03/27 05:14:04;;;;;;;7.55;3.88;;;10.30;37.20;;;;;;5050268;28;20491;-73
2024/03/27 05:16:29;;;;;;;6.40;3.60;;;10.40;37.00;;;;;;5050585;28;20424;-72
2024/03/27 05:18:55;;;;;;;8.80;4.70;;;10.50;37.00;;;;;;5052340;28;20738;-74
2024/03/27 05:21:21;;;;;;;6.80;4.00;;;10.50;36.70;;;;;;5052487;28;20413;-71
2024/03/27 05:23:47;;;;;;;6.70;4.00;;;10.60;36.60;;;;;;5049349;28;20462;-72
2024/03/27 05:26:12;;;;;;;8.48;4.15;;;10.60;36.90;;;;;;5053821;28;20861;-72
2024/03/27 05:28:38;;;;;;;6.30;4.15;;;10.60;36.70;;;;;;5023445;28;20385;-72
2024/03/27 05:31:03;;;;;;;6.13;3.90;;;10.70;36.80;;;;;;5033282;28;20390;-73
2024/03/27 05:33:29;;;;;;;8.03;4.50;;;10.70;36.60;;;;;;5034529;28;20834;-72
2024/03/27 05:35:54;;;;;;;9.20;4.70;;;10.70;36.90;;;;;;5034899;28;20387;-71
2024/03/27 05:38:21;;;;;;;7.03;4.43;;;10.70;37.10;;;;;;5035211;28;20383;-71
2024/03/27 05:40:46;;;;;;;7.37;4.20;;;10.70;36.70;;;;;;5036225;28;20525;-74
2024/03/27 05:43:12;;;;;;;6.90;4.20;;;10.90;36.60;;;;;;5036456;28;20386;-72
2024/03/27 05:45:38;;;;;;;7.85;4.55;;;10.80;36.70;;;;;;5035210;28;20391;-72
2024/03/27 05:48:04;;;;;;;19.97;4.17;;;10.90;36.40;;;;;;5034765;28;20375;-73
2024/03/27 05:50:29;;;;;;;8.18;4.45;;;10.90;36.60;;;;;;5035026;28;20473;-71
2024/03/27 05:52:55;;;;;;;7.10;4.43;;;10.90;36.60;;;;;;5035409;28;20387;-71
2024/03/27 05:55:20;;;;;;;9.67;4.33;;;10.90;36.90;;;;;;5036045;28;20489;-72
2024/03/27 05:57:46;;;;;;;7.53;4.33;;;11.00;36.80;;;;;;5034953;28;20394;-72
2024/03/27 06:00:13;;;;;;;8.10;4.53;;;11.00;36.50;;;;;;5034582;28;20419;-72
2024/03/27 06:02:38;;;;;;;8.70;4.60;;;11.10;36.50;;;;;;5017184;28;20379;-72
2024/03/27 06:05:04;;;;;;;6.45;4.65;;;11.10;36.40;;;;;;5034896;28;20379;-73
2024/03/27 06:07:30;;;;;;;8.10;4.65;;;11.00;36.50;;;;;;5034829;28;20452;-71
2024/03/27 06:09:56;;;;;;;7.07;4.73;;;11.10;36.30;;;;;;5034973;28;20398;-72
2024/03/27 06:12:21;;;;;;;11.43;5.03;;;11.20;36.40;;;;;;5034452;28;20395;-73
2024/03/27 06:14:47;;;;;;;9.30;5.10;;;11.10;36.80;;;;;;5034947;28;20403;-73
2024/03/27 06:17:12;;;;;;;8.13;4.60;;;11.20;37.00;;;;;;5035118;28;20430;-73
2024/03/27 06:19:38;;;;;;;10.32;5.30;;;11.20;37.20;;;;;;5034982;28;20399;-72
2024/03/27 06:22:03;;;;;;;13.50;5.40;;;11.20;36.90;;;;;;5034787;28;20858;-72
2024/03/27 06:24:29;;;;;;;11.00;5.20;;;11.30;37.10;;;;;;5035343;28;20437;-73
2024/03/27 06:26:54;;;;;;;13.50;5.60;;;11.20;37.40;;;;;;5035168;28;20449;-73
2024/03/27 06:29:20;;;;;;;10.57;5.15;;;11.30;37.40;;;;;;5033770;28;20394;-72
2024/03/27 06:31:46;;;;;;;9.48;4.97;;;11.40;37.50;;;;;;5016277;28;20386;-72
2024/03/27 06:34:12;;;;;;;11.85;6.05;;;11.40;37.60;;;;;;5034348;28;20426;-71
2024/03/27 06:36:37;;;;;;;8.07;5.00;;;11.50;37.60;;;;;;5034109;28;20383;-71
2024/03/27 06:39:03;;;;;;;12.25;5.78;;;11.50;37.70;;;;;;5015804;28;20921;-73
2024/03/27 06:41:29;;;;;;;9.90;5.53;;;11.60;37.20;;;;;;5015919;28;20713;-72
2024/03/27 06:43:54;;;;;;;10.35;5.97;;;11.70;37.60;;;;;;5033856;28;20939;-73
2024/03/27 06:46:20;;;;;;;9.00;5.70;;;11.80;37.80;;;;;;5034919;28;20874;-73
2024/03/27 06:48:56;;;;;;;11.10;5.53;;;11.90;37.30;;;;;;5035960;28;20375;-71
2024/03/27 06:51:22;;;;;;;11.13;5.97;;;11.90;37.50;;;;;;5035521;28;20433;-72
2024/03/27 06:53:48;;;;;;;12.15;5.90;;;11.90;37.80;;;;;;5033618;28;20733;-71
2024/03/27 06:56:13;;;;;;;8.77;5.17;;;11.90;37.90;;;;;;5034021;28;20394;-72
2024/03/27 06:58:39;;;;;;;8.77;4.40;;;12.10;38.00;;;;;;5035941;28;20390;-72
2024/03/27 07:01:05;;;;;;;11.65;4.00;;;12.10;37.40;;;;;;5038894;28;20390;-73
2024/03/27 07:03:33;;;;;;;8.05;3.10;;;12.10;37.40;;;;;;5019197;28;20403;-71
2024/03/27 07:05:58;;;;;;;5.72;3.33;;;12.10;37.30;;;;;;5034276;28;20391;-72
2024/03/27 07:08:24;;;;;;;4.60;3.10;;;12.00;37.40;;;;;;5034816;28;20387;-72
2024/03/27 07:10:59;;;;;;;4.88;3.20;;;12.00;37.40;;;;;;5034800;28;20383;-72
2024/03/27 07:13:25;;;;;;;4.73;2.80;;;12.00;37.30;;;;;;5038678;28;20638;-73
2024/03/27 07:15:54;;;;;;;5.60;2.70;;;11.90;37.30;;;;;;5038941;28;20411;-72
2024/03/27 07:18:23;;;;;;;5.10;2.17;;;11.90;37.30;;;;;;5042148;28;20414;-73
2024/03/27 07:20:58;;;;;;;3.83;2.10;;;11.90;37.00;;;;;;5045594;28;20493;-72
2024/03/27 07:23:24;;;;;;;3.08;2.38;;;11.90;37.30;;;;;;5024122;28;20423;-73
2024/03/27 07:25:50;;;;;;;2.60;1.90;;;11.90;37.20;;;;;;5034344;28;20489;-74
2024/03/27 07:28:16;;;;;;;4.32;2.00;;;11.90;37.10;;;;;;5035254;28;20403;-74
2024/03/27 07:30:41;;;;;;;3.75;2.00;;;11.90;37.30;;;;;;5034392;28;20391;-72
2024/03/27 07:33:07;;;;;;;2.70;1.65;;;11.90;37.30;;;;;;5017035;28;20402;-71
2024/03/27 07:35:33;;;;;;;3.83;1.50;;;12.00;37.30;;;;;;5039464;28;20421;-72
2024/03/27 07:37:58;;;;;;;4.60;2.50;;;12.00;36.50;;;;;;5042329;28;20390;-71
2024/03/27 07:40:27;;;;;;;6.83;2.97;;;12.10;36.60;;;;;;5040225;28;20422;-71
2024/03/27 07:42:53;;;;;;;6.95;2.80;;;12.10;36.70;;;;;;5044564;28;20462;-71
2024/03/27 07:45:18;;;;;;;2.40;1.50;;;12.20;36.90;;;;;;5046125;28;20830;-70
2024/03/27 07:47:44;;;;;;;3.57;1.70;;;12.20;36.20;;;;;;5044662;28;20402;-73
2024/03/27 07:50:10;;;;;;;3.30;1.77;;;12.30;35.90;;;;;;5039469;28;20434;-73
2024/03/27 07:52:36;;;;;;;4.10;1.92;;;12.40;35.30;;;;;;5017620;28;20398;-72
2024/03/27 07:55:02;;;;;;;3.00;2.00;;;12.40;35.40;;;;;;5033764;28;20394;-74
2024/03/27 07:57:27;;;;;;;3.13;1.75;;;12.30;35.90;;;;;;5033558;28;20391;-71
2024/03/27 07:59:53;;;;;;;6.97;2.10;;;12.40;35.50;;;;;;5020950;28;20415;-71
2024/03/27 08:02:21;;;;;;;2.47;1.90;;;12.40;35.40;;;;;;5036058;28;20431;-72
2024/03/27 08:04:46;;;;;;;3.67;2.20;;;12.60;35.70;;;;;;5037275;28;20441;-74
2024/03/27 08:07:12;;;;;;;4.37;2.30;;;12.60;35.30;;;;;;5036927;28;20398;-71
2024/03/27 08:09:37;;;;;;;2.80;2.10;;;12.60;35.30;;;;;;5020431;28;20447;-72
2024/03/27 08:12:03;;;;;;;2.72;1.80;;;12.80;34.40;;;;;;5032860;28;20391;-71
2024/03/27 08:14:28;;;;;;;4.22;1.80;;;12.80;34.30;;;;;;5045894;23;20975;-77
2024/03/27 08:16:54;;;;;;;2.23;1.83;;;12.80;33.50;;;;;;5036875;28;20379;-76
2024/03/27 08:19:20;;;;;;;3.90;1.90;;;12.90;33.10;;;;;;5037592;28;20494;-76
2024/03/27 08:21:45;;;;;;;3.97;2.00;;;12.90;33.30;;;;;;5035616;28;20437;-76
2024/03/27 08:24:11;;;;;;;2.93;1.97;;;13.00;33.20;;;;;;5031948;28;20869;-76
2024/03/27 08:26:37;;;;;;;5.82;2.05;;;13.00;33.20;;;;;;5031715;28;20379;-78
2024/03/27 08:29:03;;;;;;;6.43;2.00;;;12.90;33.30;;;;;;5032701;28;20422;-76
2024/03/27 08:31:29;;;;;;;2.90;1.87;;;13.00;33.20;;;;;;5031060;28;20390;-77
2024/03/27 08:33:54;;;;;;;2.53;1.60;;;13.00;33.00;;;;;;5031538;28;20391;-76
2024/03/27 08:36:20;;;;;;;2.70;2.20;;;12.90;33.40;;;;;;5032144;28;20383;-75
2024/03/27 08:38:45;;;;;;;2.83;1.90;;;12.90;33.40;;;;;;5031585;28;20391;-76
2024/03/27 08:41:11;;;;;;;4.72;2.20;;;12.90;33.50;;;;;;5036176;28;20474;-76
2024/03/27 08:43:36;;;;;;;2.65;2.20;;;12.80;33.80;;;;;;5032971;28;20807;-77
2024/03/27 08:46:04;;;;;;;2.47;2.13;;;12.80;33.80;;;;;;5032384;28;20513;-76
2024/03/27 08:48:30;;;;;;;4.13;2.28;;;12.90;34.30;;;;;;5034561;28;20414;-76
2024/03/27 08:50:55;;;;;;;2.47;2.10;;;13.10;33.70;;;;;;5035263;28;20467;-76
2024/03/27 08:53:21;;;;;;;7.47;2.60;;;13.10;33.60;;;;;;5036759;28;20441;-76
2024/03/27 08:55:49;;;;;;;2.95;2.20;;;13.20;33.10;;;;;;5039525;28;20711;-77
2024/03/27 08:58:14;;;;;;;3.20;2.50;;;13.30;32.80;;;;;;5038045;28;20397;-77
2024/03/27 09:00:42;;;;;;;4.93;2.53;;;13.30;32.30;;;;;;5038809;28;20887;-76
2024/03/27 09:03:07;;;;;;;5.40;2.83;;;13.40;32.50;;;;;;5035646;28;20754;-75
2024/03/27 09:05:33;;;;;;;3.47;2.50;;;13.30;32.50;;;;;;5037795;28;20479;-75
2024/03/27 09:07:58;;;;;;;3.90;2.60;;;13.40;32.40;;;;;;5042028;28;20462;-76
2024/03/27 09:10:25;;;;;;;2.90;2.22;;;13.50;32.30;;;;;;5041517;28;20379;-74
2024/03/27 09:12:51;;;;;;;3.65;2.63;;;13.60;31.70;;;;;;5035501;28;20490;-77
2024/03/27 09:15:16;;;;;;;4.20;2.90;;;13.80;32.20;;;;;;5036385;28;20403;-76
2024/03/27 09:17:42;;;;;;;3.23;2.50;;;14.00;31.50;;;;;;5035924;28;20383;-75
2024/03/27 09:20:09;;;;;;;3.40;2.60;;;14.10;31.00;;;;;;5037681;28;20909;-77
2024/03/27 09:22:35;;;;;;;3.15;2.58;;;14.20;31.30;;;;;;5035401;28;20387;-77
2024/03/27 09:25:01;;;;;;;5.97;3.10;;;14.20;31.10;;;;;;5034921;28;20394;-76
2024/03/27 09:27:27;;;;;;;5.65;3.33;;;14.00;30.90;;;;;;5036597;28;20395;-75
2024/03/27 09:29:53;;;;;;;4.65;3.30;;;13.70;32.00;;;;;;5038566;28;20391;-76
2024/03/27 09:32:20;;;;;;;6.18;3.13;;;13.50;32.60;;;;;;5041306;28;20383;-76
2024/03/27 09:34:47;;;;;;;5.50;3.67;;;13.20;33.30;;;;;;5035158;28;20443;-77
2024/03/27 09:37:13;;;;;;;5.07;3.80;;;13.10;34.40;;;;;;5036368;28;20742;-76
2024/03/27 09:39:39;;;;;;;5.60;3.95;;;13.00;33.70;;;;;;5035367;28;20429;-76
2024/03/27 09:42:05;;;;;;;6.07;3.50;;;12.90;34.50;;;;;;5036227;28;20388;-75
2024/03/27 09:44:31;;;;;;;5.13;3.75;;;12.80;35.70;;;;;;5040203;28;20881;-75
2024/03/27 09:47:01;;;;;;;5.07;3.72;;;12.80;36.50;;;;;;5043110;28;20396;-76
2024/03/27 09:49:27;;;;;;;5.60;4.40;;;13.00;35.20;;;;;;5043651;28;20391;-75
2024/03/27 09:51:57;;;;;;;5.72;4.13;;;13.10;34.90;;;;;;5039665;28;20892;-76
2024/03/27 09:54:26;;;;;;;7.72;4.70;;;13.00;35.40;;;;;;5040030;28;20406;-76
2024/03/27 09:56:55;;;;;;;6.18;4.00;;;13.10;35.20;;;;;;5037210;28;20474;-76
2024/03/27 09:59:21;;;;;;;6.40;4.27;;;12.90;35.30;;;;;;5036145;28;20427;-76
2024/03/27 10:02:00;;;;;;;6.10;4.10;;;12.90;35.70;;;;;;5035836;28;20418;-76
2024/03/27 10:04:26;;;;;;;4.90;4.05;;;13.20;35.50;;;;;;5034504;28;20794;-78
2024/03/27 10:06:52;;;;;;;7.00;4.05;;;13.10;35.20;;;;;;5034896;28;20390;-76
2024/03/27 10:09:19;;;;;;;5.03;4.00;;;12.90;34.70;;;;;;5035151;28;20395;-77
2024/03/27 10:11:45;;;;;;;4.85;4.28;;;12.60;35.50;;;;;;5035284;28;20417;-77
2024/03/27 10:14:11;;;;;;;7.05;4.53;;;12.50;36.30;;;;;;5034221;28;20407;-76
2024/03/27 10:16:36;;;;;;;4.25;3.70;;;12.50;36.60;;;;;;5033267;28;20395;-76
2024/03/27 10:19:02;;;;;;;8.50;4.32;;;12.50;36.70;;;;;;5033158;28;20445;-75
2024/03/27 10:21:28;;;;;;;6.00;3.60;;;12.60;36.30;;;;;;5032873;28;20388;-76
2024/03/27 10:23:54;;;;;;;4.38;3.45;;;12.70;35.70;;;;;;5037025;28;20426;-77
2024/03/27 10:26:19;;;;;;;4.40;3.80;;;12.80;35.60;;;;;;5038676;28;20411;-75
2024/03/27 10:28:45;;;;;;;5.72;4.00;;;12.80;35.50;;;;;;5034356;28;20396;-75
2024/03/27 10:31:11;;;;;;;6.35;3.95;;;12.70;35.60;;;;;;5034688;28;20383;-78
2024/03/27 10:33:36;;;;;;;11.50;4.20;;;12.60;35.90;;;;;;5033406;28;20433;-78
2024/03/27 10:36:05;;;;;;;4.87;4.10;;;12.50;36.70;;;;;;5034586;28;20520;-78
2024/03/27 10:38:31;;;;;;;9.70;4.10;;;12.40;38.00;;;;;;5033383;28;20387;-77
2024/03/27 10:41:03;;;;;;;6.03;4.38;;;12.30;38.50;;;;;;5033590;28;20407;-76
2024/03/27 10:43:46;;;;;;;5.80;4.37;;;12.20;39.90;;;;;;5033634;28;20387;-77
2024/03/27 10:46:14;;;;;;;5.88;4.57;;;12.10;40.70;;;;;;5033833;28;20842;-79
2024/03/27 10:48:40;;;;;;;7.70;4.38;;;12.20;40.80;;;;;;5033736;28;20383;-77
2024/03/27 10:51:06;;;;;;;6.07;4.55;;;12.00;41.80;;;;;;5033392;28;20795;-77
2024/03/27 10:53:33;;;;;;;7.95;5.38;;;12.00;43.60;;;;;;5033557;28;20383;-76
2024/03/27 10:56:00;;;;;;;7.18;5.25;;;11.80;44.60;;;;;;5032953;28;20375;-77
2024/03/27 10:58:27;;;;;;;6.70;5.15;;;11.70;45.50;;;;;;5032784;28;20379;-78
2024/03/27 11:00:56;;;;;;;5.75;4.72;;;11.60;47.00;;;;;;5033117;28;20893;-77
2024/03/27 11:03:26;;;;;;;6.75;5.18;;;11.50;48.40;;;;;;5033612;28;20391;-76
2024/03/27 11:05:52;;;;;;;5.65;4.65;;;11.50;46.00;;;;;;5033822;28;20529;-76
2024/03/27 11:08:19;;;;;;;6.05;4.53;;;11.50;47.40;;;;;;5033036;28;20383;-75
2024/03/27 11:10:45;;;;;;;6.10;4.80;;;11.50;47.00;;;;;;5032420;28;20391;-76
2024/03/27 11:13:12;;;;;;;6.10;4.80;;;11.40;47.80;;;;;;5034108;28;20429;-76
2024/03/27 11:15:43;;;;;;;7.65;5.50;;;11.30;49.30;;;;;;5032483;28;20418;-76
2024/03/27 11:18:18;;;;;;;9.05;5.50;;;11.30;50.40;;;;;;5033263;28;20437;-76
2024/03/27 11:20:53;;;;;;;7.32;5.25;;;11.40;51.80;;;;;;5032723;28;20407;-78
2024/03/27 11:23:27;;;;;;;7.30;5.63;;;11.40;51.00;;;;;;5032904;28;20877;-76
2024/03/27 11:25:53;;;;;;;7.70;6.00;;;11.60;49.70;;;;;;5032484;28;20469;-76
2024/03/27 11:28:19;;;;;;;9.48;5.80;;;11.60;48.90;;;;;;5033412;28;20470;-76
2024/03/27 11:30:46;;;;;;;8.50;6.00;;;11.50;49.30;;;;;;5033736;28;20507;-75
2024/03/27 11:33:13;;;;;;;8.85;6.43;;;11.40;50.60;;;;;;5035484;28;20393;-76
2024/03/27 11:35:39;;;;;;;7.63;5.90;;;11.50;50.10;;;;;;5035020;28;20385;-75
2024/03/27 11:38:05;;;;;;;8.23;5.63;;;11.40;51.30;;;;;;5034973;28;20967;-75
2024/03/27 11:40:30;;;;;;;9.07;6.13;;;11.40;50.60;;;;;;5034251;28;20490;-77
2024/03/27 11:42:56;;;;;;;8.37;6.63;;;11.50;51.10;;;;;;5034132;28;20476;-77
2024/03/27 11:45:25;;;;;;;10.33;6.10;;;11.50;51.20;;;;;;5032822;28;20900;-76
2024/03/27 11:47:53;;;;;;;8.40;5.30;;;11.70;50.20;;;;;;5031910;28;20383;-76
2024/03/27 11:50:20;;;;;;;5.63;4.10;;;12.00;44.60;;;;;;5031059;28;20428;-74
2024/03/27 11:52:46;;;;;;;6.15;4.60;;;12.20;42.90;;;;;;5035719;28;20406;-76
2024/03/27 11:55:13;;;;;;;6.00;4.60;;;12.40;44.00;;;;;;5034162;28;20402;-76
2024/03/27 11:57:38;;;;;;;6.60;5.05;;;12.50;42.90;;;;;;5032625;28;20383;-76
2024/03/27 12:00:08;;;;;;;8.10;5.10;;;12.50;42.50;;;;;;5034424;28;20971;-75
2024/03/27 12:02:34;;;;;;;5.13;4.18;;;12.30;42.80;;;;;;5034226;28;20375;-77
2024/03/27 12:05:04;;;;;;;5.70;4.43;;;12.10;43.40;;;;;;5036043;28;20424;-76
2024/03/27 12:07:32;;;;;;;6.40;4.47;;;12.10;44.20;;;;;;5030303;28;20394;-76
2024/03/27 12:10:00;;;;;;;3.78;3.38;;;12.10;43.30;;;;;;5031533;28;20873;-76
2024/03/27 12:12:27;;;;;;;3.28;2.70;;;12.00;41.80;;;;;;5032515;28;20474;-77
2024/03/27 12:14:54;;;;;;;2.33;1.83;;;11.80;39.80;;;;;;5031603;28;20407;-77
2024/03/27 12:17:21;;;;;;;2.95;2.50;;;11.60;39.20;;;;;;5031492;28;20936;-77
2024/03/27 12:19:54;;;;;;;3.95;2.40;;;11.40;40.10;;;;;;5030212;28;20501;-77
2024/03/27 12:22:20;;;;;;;3.08;2.75;;;11.30;41.20;;;;;;5031448;28;20424;-77
2024/03/27 12:24:47;;;;;;;2.80;2.60;;;11.30;42.70;;;;;;5039798;28;20456;-77
2024/03/27 12:27:13;;;;;;;3.35;2.70;;;11.30;43.10;;;;;;5036734;28;20387;-76
2024/03/27 12:29:38;;;;;;;3.03;2.50;;;11.20;43.20;;;;;;5036082;28;20723;-79
2024/03/27 12:32:04;;;;;;;2.60;2.40;;;11.20;43.90;;;;;;5038190;28;20470;-76
2024/03/27 12:34:32;;;;;;;4.50;2.50;;;11.40;44.70;;;;;;5038551;28;20466;-77
2024/03/27 12:37:00;;;;;;;2.85;2.50;;;11.70;42.80;;;;;;5040762;28;20386;-76
2024/03/27 12:39:25;;;;;;;2.83;2.53;;;12.10;41.20;;;;;;5039793;28;20415;-77
2024/03/27 12:41:51;;;;;;;2.60;2.40;;;12.20;39.30;;;;;;5038385;28;20515;-77